Time;durP1;ratioP1;P1;durP2;ratioP2;P2;SDS_P1;SDS_P2;PMS_P1;PMS_P2;Temp;Humidity;BMP_temperature;BMP_pressure;BME280_temperature;BME280_humidity;BME280_pressure;Samples;Min_cycle;Max_cycle;Signal;HPM_P1;HPM_P2
2024/01/12 00:00:03;;;;;;;2.40;1.00;;;;;;;-3.51;53.03;99581.58;109146;1257;62857;-68
2024/01/12 00:02:38;;;;;;;4.10;1.10;;;;;;;-3.58;53.19;99585.79;109175;1256;58353;-69
2024/01/12 00:05:07;;;;;;;3.60;1.10;;;;;;;-3.67;53.19;99598.80;109162;1256;63687;-68
2024/01/12 00:07:34;;;;;;;2.50;0.90;;;;;;;-3.72;53.18;99607.10;109151;1255;57379;-67
2024/01/12 00:10:02;;;;;;;3.60;1.00;;;;;;;-3.77;53.18;99612.23;109177;1255;57492;-68
2024/01/12 00:12:30;;;;;;;3.60;0.70;;;;;;;-3.80;53.25;99624.56;109167;1255;72703;-68
2024/01/12 00:14:58;;;;;;;1.70;1.00;;;;;;;-3.82;53.15;99632.70;109065;1257;58109;-68
2024/01/12 00:17:25;;;;;;;2.30;0.90;;;;;;;-3.87;52.73;99631.31;109073;1257;62527;-69
2024/01/12 00:19:54;;;;;;;2.70;0.90;;;;;;;-3.93;52.54;99636.70;109041;1256;57287;-68
2024/01/12 00:22:22;;;;;;;2.70;0.70;;;;;;;-4.01;52.17;99647.41;109132;1257;57272;-69
2024/01/12 00:24:49;;;;;;;5.50;0.80;;;;;;;-4.09;51.82;99657.46;109184;1256;64103;-69
2024/01/12 00:27:17;;;;;;;2.80;1.00;;;;;;;-4.16;51.53;99665.27;109097;1256;57437;-68
2024/01/12 00:29:45;;;;;;;3.40;0.70;;;;;;;-4.24;51.36;99674.95;109127;1257;62474;-69
2024/01/12 00:32:12;;;;;;;2.30;0.60;;;;;;;-4.35;50.96;99675.61;109116;1256;62538;-69
2024/01/12 00:34:40;;;;;;;1.40;0.60;;;;;;;-4.44;50.39;99681.23;109159;1255;57251;-69
2024/01/12 00:37:08;;;;;;;3.10;0.70;;;;;;;-4.55;50.31;99686.18;109157;1256;64126;-68
2024/01/12 00:39:36;;;;;;;2.50;0.70;;;;;;;-4.63;50.28;99686.91;109202;1256;57506;-68
2024/01/12 00:42:04;;;;;;;1.50;0.80;;;;;;;-4.69;50.32;99692.61;109156;1255;66087;-68
2024/01/12 00:44:32;;;;;;;4.70;0.60;;;;;;;-4.76;50.23;99699.31;109153;1258;60548;-69
2024/01/12 00:47:00;;;;;;;2.50;0.70;;;;;;;-4.83;50.07;99711.01;109141;1256;57415;-69
2024/01/12 00:49:28;;;;;;;3.30;0.50;;;;;;;-4.89;50.06;99713.08;109155;1262;62844;-68
2024/01/12 00:51:55;;;;;;;1.20;0.50;;;;;;;-4.93;49.96;99722.27;109078;1256;57418;-68
2024/01/12 00:54:26;;;;;;;1.40;0.70;;;;;;;-4.97;49.88;99727.36;109082;1256;62563;-69
2024/01/12 00:56:54;;;;;;;1.20;0.60;;;;;;;-5.01;50.13;99735.71;109163;1256;57384;-69
2024/01/12 00:59:22;;;;;;;6.40;0.80;;;;;;;-5.04;50.07;99739.40;109178;1257;57462;-69
2024/01/12 01:01:53;;;;;;;1.50;0.60;;;;;;;-5.09;50.10;99741.59;109151;1256;63275;-69
2024/01/12 01:04:21;;;;;;;1.60;0.60;;;;;;;-5.11;50.20;99738.05;109050;1256;58137;-69
2024/01/12 01:06:48;;;;;;;2.20;0.70;;;;;;;-5.13;50.37;99741.51;109088;1257;63879;-69
2024/01/12 01:09:16;;;;;;;2.60;0.90;;;;;;;-5.15;50.55;99749.99;109137;1257;57379;-69
2024/01/12 01:11:44;;;;;;;2.10;0.90;;;;;;;-5.20;50.63;99752.52;109111;1257;59815;-68
2024/01/12 01:14:11;;;;;;;1.50;0.60;;;;;;;-5.24;50.66;99753.45;109101;1257;71970;-67
2024/01/12 01:16:39;;;;;;;3.70;1.00;;;;;;;-5.28;50.47;99756.14;109158;1257;58299;-67
2024/01/12 01:19:08;;;;;;;1.00;0.60;;;;;;;-5.33;50.52;99760.23;109083;1257;63753;-67
2024/01/12 01:21:36;;;;;;;1.90;0.80;;;;;;;-5.41;50.37;99762.13;109106;1257;57397;-67
2024/01/12 01:24:04;;;;;;;3.10;0.70;;;;;;;-5.48;50.34;99765.73;109060;1257;57449;-67
2024/01/12 01:26:31;;;;;;;1.40;0.70;;;;;;;-5.55;50.27;99771.55;109071;1256;73053;-67
2024/01/12 01:28:59;;;;;;;1.20;0.80;;;;;;;-5.62;50.33;99770.34;109143;1257;57435;-67
2024/01/12 01:31:27;;;;;;;1.50;0.60;;;;;;;-5.65;50.39;99776.42;109155;1257;65649;-66
2024/01/12 01:33:54;;;;;;;1.40;0.70;;;;;;;-5.66;50.44;99775.27;109093;1257;57397;-66
2024/01/12 01:36:22;;;;;;;1.60;0.80;;;;;;;-5.70;50.33;99779.45;109116;1257;57454;-66
2024/01/12 01:38:49;;;;;;;1.00;0.60;;;;;;;-5.74;50.33;99781.94;109169;1257;63534;-66
2024/01/12 01:41:17;;;;;;;2.60;0.80;;;;;;;-5.79;50.22;99783.07;109153;1257;58287;-66
2024/01/12 01:43:45;;;;;;;4.70;0.90;;;;;;;-5.84;50.32;99797.92;109041;1257;72696;-66
2024/01/12 01:46:12;;;;;;;1.30;0.90;;;;;;;-5.87;50.49;99800.06;109083;1257;57415;-66
2024/01/12 01:48:40;;;;;;;2.50;0.80;;;;;;;-5.90;50.52;99805.10;109034;1257;57475;-67
2024/01/12 01:51:08;;;;;;;3.70;0.90;;;;;;;-5.93;50.64;99808.09;109051;1257;64238;-67
2024/01/12 01:53:35;;;;;;;1.80;1.00;;;;;;;-5.95;50.70;99815.36;109100;1256;57470;-67
2024/01/12 01:56:03;;;;;;;2.00;0.70;;;;;;;-5.98;50.75;99819.53;109105;1261;62491;-67
2024/01/12 01:58:34;;;;;;;1.50;0.70;;;;;;;-6.01;50.88;99820.61;109047;1262;57263;-67
2024/01/12 02:01:01;;;;;;;4.10;0.70;;;;;;;-6.03;50.87;99820.33;109082;1257;57425;-67
2024/01/12 02:03:29;;;;;;;3.90;0.70;;;;;;;-6.07;50.77;99819.88;109034;1257;75082;-67
2024/01/12 02:05:57;;;;;;;2.80;0.80;;;;;;;-6.11;50.69;99826.14;109025;1257;58151;-67
2024/01/12 02:08:25;;;;;;;3.70;0.80;;;;;;;-6.15;50.69;99826.41;109096;1259;63795;-67
2024/01/12 02:10:54;;;;;;;2.40;0.70;;;;;;;-6.18;50.79;99831.08;109032;1257;57702;-67
2024/01/12 02:17:53;;;;;;;1.70;0.70;;;;;;;-6.29;50.86;99841.60;109071;1257;62874;-67
2024/01/12 02:20:21;;;;;;;2.40;0.70;;;;;;;-6.33;50.99;99848.52;109049;1257;58257;-67
2024/01/12 02:22:48;;;;;;;2.50;0.90;;;;;;;-6.36;50.98;99847.88;109061;1257;62492;-68
2024/01/12 02:25:16;;;;;;;2.00;0.80;;;;;;;-6.38;51.10;99848.08;109038;1257;57402;-67
2024/01/12 02:27:44;;;;;;;1.40;0.80;;;;;;;-6.40;51.14;99856.67;108977;1260;62123;-67
2024/01/12 02:30:12;;;;;;;4.40;0.80;;;;;;;-6.41;51.15;99859.78;109032;1259;62839;-67
2024/01/12 02:32:39;;;;;;;1.90;0.90;;;;;;;-6.44;51.17;99861.39;108932;1258;58252;-67
2024/01/12 02:35:07;;;;;;;2.80;0.90;;;;;;;-6.48;51.21;99864.88;108996;1259;63975;-68
2024/01/12 02:37:34;;;;;;;1.90;0.80;;;;;;;-6.54;51.15;99866.21;109023;1259;63852;-66
2024/01/12 02:40:03;;;;;;;2.30;1.00;;;;;;;-6.56;51.34;99868.30;109035;1259;57259;-67
2024/01/12 02:42:31;;;;;;;3.20;1.20;;;;;;;-6.57;51.41;99876.52;109134;1259;62817;-68
2024/01/12 02:44:58;;;;;;;2.40;1.20;;;;;;;-6.60;51.46;99877.77;109043;1259;57514;-69
2024/01/12 02:47:26;;;;;;;2.50;1.10;;;;;;;-6.64;51.64;99878.71;109074;1258;63773;-68
2024/01/12 02:49:54;;;;;;;2.10;1.10;;;;;;;-6.68;51.68;99879.97;109072;1258;57313;-68
2024/01/12 02:52:21;;;;;;;1.90;1.00;;;;;;;-6.72;51.75;99884.50;109001;1258;57340;-68
2024/01/12 02:54:49;;;;;;;2.30;1.00;;;;;;;-6.78;51.77;99886.48;108960;1259;64210;-68
2024/01/12 02:57:16;;;;;;;1.90;0.60;;;;;;;-6.81;51.79;99883.63;109050;1259;58420;-68
2024/01/12 02:59:44;;;;;;;1.40;0.70;;;;;;;-6.84;51.71;99888.66;109025;1260;74839;-68
2024/01/12 03:06:47;;;;;;;2.90;1.20;;;;;;;-6.95;52.05;99900.61;109023;1260;57269;-69
2024/01/12 03:09:15;;;;;;;4.10;1.90;;;;;;;-6.97;52.08;99901.84;108949;1260;71750;-69
2024/01/12 03:11:42;;;;;;;2.60;1.40;;;;;;;-6.99;52.06;99908.73;109042;1259;57398;-68
2024/01/12 03:14:10;;;;;;;3.60;1.30;;;;;;;-7.01;52.13;99909.11;109020;1259;64099;-67
2024/01/12 03:16:37;;;;;;;2.50;1.00;;;;;;;-7.05;52.04;99914.30;108934;1258;57428;-68
2024/01/12 03:19:05;;;;;;;2.70;0.90;;;;;;;-7.09;52.20;99920.87;109052;1260;57489;-68
2024/01/12 03:21:33;;;;;;;2.00;0.80;;;;;;;-7.11;52.18;99931.00;109023;1258;75100;-66
2024/01/12 03:24:01;;;;;;;1.50;0.80;;;;;;;-7.14;52.29;99936.17;109013;1258;57383;-67
2024/01/12 03:26:29;;;;;;;2.50;1.00;;;;;;;-7.17;52.30;99934.32;108965;1258;72442;-67
2024/01/12 03:28:56;;;;;;;2.00;0.90;;;;;;;-7.19;52.25;99938.64;108998;1259;57391;-66
2024/01/12 03:31:24;;;;;;;1.50;0.80;;;;;;;-7.22;52.34;99940.06;108950;1258;57435;-67
2024/01/12 03:33:51;;;;;;;1.50;0.60;;;;;;;-7.26;52.42;99945.73;109021;1258;64150;-67
2024/01/12 03:36:19;;;;;;;1.90;0.90;;;;;;;-7.29;52.46;99955.20;109026;1260;58181;-67
2024/01/12 03:38:48;;;;;;;1.40;0.70;;;;;;;-7.31;52.57;99963.27;109024;1259;63778;-67
2024/01/12 03:41:15;;;;;;;6.20;2.40;;;;;;;-7.31;52.60;99964.30;108994;1259;58133;-67
2024/01/12 03:43:43;;;;;;;2.80;1.20;;;;;;;-7.31;52.63;99971.65;109002;1258;58210;-67
2024/01/12 03:46:10;;;;;;;3.80;1.10;;;;;;;-7.31;52.68;99978.83;109006;1258;63690;-67
2024/01/12 03:48:40;;;;;;;2.90;1.30;;;;;;;-7.31;52.76;99983.96;109013;1258;58308;-66
2024/01/12 03:51:08;;;;;;;2.80;1.30;;;;;;;-7.30;52.76;99986.35;109014;1259;62472;-67
2024/01/12 03:53:36;;;;;;;2.00;1.20;;;;;;;-7.31;52.91;99988.76;109041;1260;58242;-66
2024/01/12 03:56:03;;;;;;;2.60;0.90;;;;;;;-7.34;52.87;99989.98;109001;1263;58046;-67
2024/01/12 03:58:31;;;;;;;3.60;0.90;;;;;;;-7.36;52.86;99991.90;109001;1258;65052;-67
2024/01/12 04:00:59;;;;;;;1.40;0.90;;;;;;;-7.41;52.90;99992.48;109007;1260;58204;-67
2024/01/12 04:03:26;;;;;;;2.10;1.00;;;;;;;-7.43;53.02;99992.34;109112;1257;63747;-67
2024/01/12 04:05:54;;;;;;;3.80;1.30;;;;;;;-7.47;53.03;99996.66;109039;1257;58144;-67
2024/01/12 04:08:22;;;;;;;3.90;1.70;;;;;;;-7.52;53.05;99999.45;109213;1257;58089;-67
2024/01/12 04:10:49;;;;;;;2.50;1.00;;;;;;;-7.54;53.10;100003.91;109151;1256;64926;-67
2024/01/12 04:13:17;;;;;;;2.20;0.90;;;;;;;-7.56;53.18;100006.66;109052;1257;58231;-66
2024/01/12 04:15:45;;;;;;;1.70;1.10;;;;;;;-7.58;53.24;100007.04;109134;1257;62479;-66
2024/01/12 04:18:13;;;;;;;2.60;1.40;;;;;;;-7.60;53.28;100010.32;109143;1257;58200;-66
2024/01/12 04:20:41;;;;;;;3.10;1.10;;;;;;;-7.62;53.37;100012.91;109116;1261;58241;-67
2024/01/12 04:23:09;;;;;;;3.60;0.90;;;;;;;-7.63;53.40;100016.66;109100;1257;64978;-66
2024/01/12 04:25:37;;;;;;;3.70;1.20;;;;;;;-7.64;53.47;100016.50;109133;1256;58363;-67
2024/01/12 04:28:05;;;;;;;3.70;0.90;;;;;;;-7.66;53.48;100017.90;109148;1256;63750;-69
2024/01/12 04:30:32;;;;;;;4.10;1.20;;;;;;;-7.69;53.54;100023.08;109128;1257;58188;-69
2024/01/12 04:33:00;;;;;;;4.30;1.10;;;;;;;-7.72;53.57;100025.15;109129;1257;59987;-68
2024/01/12 04:35:28;;;;;;;3.00;1.50;;;;;;;-7.72;53.65;100027.36;109133;1257;63692;-68
2024/01/12 04:37:55;;;;;;;5.30;1.50;;;;;;;-7.72;53.63;100031.82;109132;1257;60470;-67
2024/01/12 04:40:23;;;;;;;2.10;1.10;;;;;;;-7.72;53.74;100035.74;109126;1257;63858;-68
2024/01/12 04:42:51;;;;;;;3.30;1.30;;;;;;;-7.74;53.76;100041.06;109149;1257;58164;-68
2024/01/12 04:45:18;;;;;;;2.70;1.40;;;;;;;-7.76;53.74;100045.20;109081;1257;58264;-66
2024/01/12 04:47:46;;;;;;;3.10;1.40;;;;;;;-7.78;53.80;100053.24;109151;1257;63731;-68
2024/01/12 04:50:14;;;;;;;2.90;1.50;;;;;;;-7.80;53.88;100057.71;109170;1256;58428;-68
2024/01/12 04:52:42;;;;;;;2.80;1.50;;;;;;;-7.82;53.92;100064.56;109151;1257;62690;-66
2024/01/12 04:55:10;;;;;;;3.30;1.40;;;;;;;-7.84;53.99;100068.17;109141;1259;58137;-67
2024/01/12 04:57:37;;;;;;;5.00;1.80;;;;;;;-7.87;53.99;100071.80;109150;1255;58068;-67
2024/01/12 05:00:06;;;;;;;4.90;1.90;;;;;;;-7.90;53.97;100074.90;109080;1257;64981;-66
2024/01/12 05:02:35;;;;;;;4.10;1.70;;;;;;;-7.90;54.08;100080.38;109145;1257;58247;-66
2024/01/12 05:09:37;;;;;;;3.30;1.70;;;;;;;-7.94;54.23;100094.59;109054;1260;58090;-68
2024/01/12 05:12:06;;;;;;;4.00;2.00;;;;;;;-7.96;54.29;100105.03;109115;1257;58221;-69
2024/01/12 05:14:34;;;;;;;3.40;1.90;;;;;;;-7.98;54.31;100105.56;108985;1257;66756;-69
2024/01/12 05:17:02;;;;;;;10.50;4.90;;;;;;;-7.99;54.36;100108.48;109145;1257;58263;-69
2024/01/12 05:24:20;;;;;;;4.70;2.00;;;;;;;-7.99;54.53;100122.48;109231;1256;58168;-67
2024/01/12 05:26:48;;;;;;;4.30;2.50;;;;;;;-7.99;54.51;100123.19;109121;1256;58272;-67
2024/01/12 05:33:51;;;;;;;3.70;1.90;;;;;;;-8.05;54.47;100135.86;109119;1256;58263;-69
2024/01/12 05:36:19;;;;;;;3.50;1.70;;;;;;;-8.11;54.56;100138.96;109106;1258;63789;-68
2024/01/12 05:38:48;;;;;;;3.70;1.70;;;;;;;-8.14;54.56;100144.80;109026;1257;58188;-67
2024/01/12 05:41:16;;;;;;;3.50;2.00;;;;;;;-8.16;54.63;100152.16;109091;1257;58071;-67
2024/01/12 05:43:44;;;;;;;3.10;1.60;;;;;;;-8.18;54.68;100158.51;109120;1257;63819;-67
2024/01/12 05:46:12;;;;;;;3.30;1.60;;;;;;;-8.21;54.59;100164.32;109036;1257;58195;-67
2024/01/12 05:48:40;;;;;;;2.90;1.50;;;;;;;-8.25;54.52;100166.73;109083;1259;62442;-66
2024/01/12 05:51:08;;;;;;;6.00;1.70;;;;;;;-8.26;54.70;100168.98;109061;1257;58166;-69
2024/01/12 05:53:36;;;;;;;3.50;1.90;;;;;;;-8.27;54.73;100171.38;109099;1257;58256;-72
2024/01/12 05:56:05;;;;;;;3.20;1.90;;;;;;;-8.30;54.72;100174.28;109108;1262;64930;-68
2024/01/12 05:58:35;;;;;;;4.00;2.00;;;;;;;-8.33;54.73;100174.81;109108;1257;58332;-67
2024/01/12 06:01:05;;;;;;;4.40;1.60;;;;;;;-8.34;54.77;100177.92;109058;1258;63764;-68
2024/01/12 06:07:23;;;;;;;2.60;1.30;;;;;;;-8.38;54.93;100188.38;109106;1257;58090;-68
2024/01/12 06:09:54;;;;;;;2.80;1.70;;;;;;;-8.40;54.89;100189.91;109086;1258;64960;-67
2024/01/12 06:12:25;;;;;;;3.50;1.80;;;;;;;-8.43;54.86;100189.76;109077;1257;58370;-68
2024/01/12 06:14:56;;;;;;;3.60;1.40;;;;;;;-8.44;54.99;100191.65;109070;1257;62435;-68
2024/01/12 06:17:25;;;;;;;6.50;1.50;;;;;;;-8.45;55.02;100190.98;109100;1258;58192;-68
2024/01/12 06:19:56;;;;;;;3.20;1.70;;;;;;;-8.43;55.11;100192.33;109024;1257;61222;-68
2024/01/12 06:22:27;;;;;;;4.40;1.90;;;;;;;-8.42;55.09;100193.67;109085;1257;65555;-68
2024/01/12 06:24:57;;;;;;;4.50;1.90;;;;;;;-8.41;55.13;100193.50;109111;1257;58477;-68
2024/01/12 06:27:30;;;;;;;3.40;1.80;;;;;;;-8.40;55.12;100194.18;109122;1257;63892;-68
2024/01/12 06:29:59;;;;;;;3.30;1.30;;;;;;;-8.39;55.21;100197.60;109023;1257;58171;-67
2024/01/12 06:32:31;;;;;;;4.20;1.90;;;;;;;-8.37;55.19;100202.20;109152;1257;58086;-67
2024/01/12 06:35:01;;;;;;;4.30;1.80;;;;;;;-8.35;55.29;100203.04;109093;1257;65206;-67
2024/01/12 06:37:32;;;;;;;3.50;1.50;;;;;;;-8.33;55.26;100204.71;109116;1257;58183;-67
2024/01/12 06:40:04;;;;;;;3.60;1.90;;;;;;;-8.32;55.21;100205.55;108995;1257;62939;-68
2024/01/12 06:42:36;;;;;;;3.60;1.80;;;;;;;-8.31;55.23;100207.08;109056;1257;58224;-68
2024/01/12 06:45:07;;;;;;;4.40;1.90;;;;;;;-8.28;55.22;100211.52;109034;1263;58331;-69
2024/01/12 06:47:38;;;;;;;2.80;1.60;;;;;;;-8.25;55.23;100214.23;109077;1257;64954;-68
2024/01/12 06:50:07;;;;;;;4.80;1.90;;;;;;;-8.22;55.25;100217.77;109095;1257;58163;-68
2024/01/12 06:52:57;;;;;;;3.50;1.20;;;;;;;-8.18;55.17;100218.45;109067;1257;63701;-68
2024/01/12 06:55:27;;;;;;;3.90;1.90;;;;;;;-8.13;55.20;100219.60;109075;1261;58087;-68
2024/01/12 06:57:58;;;;;;;5.00;2.20;;;;;;;-8.11;55.12;100217.72;109089;1257;58331;-68
2024/01/12 07:08:01;;;;;;;6.20;2.80;;;;;;;-7.97;55.03;100224.98;102758;1293;600114;-70
2024/01/12 07:10:28;;;;;;;5.50;2.40;;;;;;;-7.97;54.99;100227.55;108609;1266;57011;-70
2024/01/12 07:12:56;;;;;;;4.10;2.40;;;;;;;-7.95;54.90;100228.39;108697;1265;57035;-68
2024/01/12 07:15:23;;;;;;;5.80;2.20;;;;;;;-7.93;54.90;100235.88;108709;1266;63360;-68
2024/01/12 07:17:51;;;;;;;5.30;2.00;;;;;;;-7.89;54.86;100237.75;108682;1264;58182;-68
2024/01/12 07:20:19;;;;;;;3.50;2.00;;;;;;;-7.87;54.79;100241.50;108698;1266;63751;-70
2024/01/12 07:22:47;;;;;;;3.30;1.60;;;;;;;-7.84;54.74;100240.27;108660;1263;201038;-69
2024/01/12 07:25:14;;;;;;;3.70;2.20;;;;;;;-7.82;54.67;100240.77;108879;1263;57189;-70
2024/01/12 07:27:41;;;;;;;3.60;2.10;;;;;;;-7.78;54.61;100241.09;108810;1263;63372;-69
2024/01/12 07:30:13;;;;;;;4.60;2.20;;;;;;;-7.74;54.56;100244.13;108796;1262;58159;-69
2024/01/12 07:32:41;;;;;;;3.80;2.10;;;;;;;-7.71;54.54;100245.48;108833;1263;63717;-69
2024/01/12 07:35:09;;;;;;;4.20;2.10;;;;;;;-7.70;54.38;100248.39;108834;1263;57312;-67
2024/01/12 07:37:37;;;;;;;5.80;2.30;;;;;;;-7.67;54.32;100248.87;108822;1263;57441;-68
2024/01/12 07:40:05;;;;;;;6.10;2.70;;;;;;;-7.64;54.27;100248.17;108822;1263;64103;-67
2024/01/12 07:42:33;;;;;;;4.90;2.20;;;;;;;-7.61;54.23;100249.35;108836;1263;57894;-69
2024/01/12 07:45:02;;;;;;;5.70;2.20;;;;;;;-7.55;54.22;100255.79;108824;1263;63761;-68
2024/01/12 07:47:30;;;;;;;3.60;2.10;;;;;;;-7.52;53.97;100257.99;108842;1263;58762;-68
2024/01/12 07:49:58;;;;;;;6.30;2.90;;;;;;;-7.49;54.03;100263.78;108846;1263;58430;-68
2024/01/12 07:52:26;;;;;;;4.70;2.50;;;;;;;-7.44;54.04;100266.48;108863;1262;64224;-67
2024/01/12 07:54:54;;;;;;;4.70;2.50;;;;;;;-7.38;53.82;100266.94;108825;1263;57484;-68
2024/01/12 07:57:21;;;;;;;4.60;2.40;;;;;;;-7.34;53.90;100265.53;108833;1263;63815;-68
2024/01/12 07:59:49;;;;;;;3.80;2.30;;;;;;;-7.29;53.76;100264.98;108813;1263;60488;-68
2024/01/12 08:02:16;;;;;;;5.00;2.10;;;;;;;-7.25;53.57;100270.26;108729;1263;57293;-68
2024/01/12 08:04:44;;;;;;;4.00;2.00;;;;;;;-7.19;53.57;100274.14;108746;1263;66271;-68
2024/01/12 08:07:12;;;;;;;5.10;2.10;;;;;;;-7.15;53.31;100272.03;108768;1263;68409;-68
2024/01/12 08:09:39;;;;;;;3.50;2.00;;;;;;;-7.13;53.18;100272.38;108758;1263;73561;-69
2024/01/12 08:12:07;;;;;;;3.60;1.90;;;;;;;-7.11;53.17;100277.49;108772;1263;63912;-69
2024/01/12 08:14:35;;;;;;;3.60;1.70;;;;;;;-7.10;52.96;100279.02;108784;1263;61825;-69
2024/01/12 08:17:03;;;;;;;3.10;1.80;;;;;;;-7.07;53.05;100288.05;108801;1264;64165;-69
2024/01/12 08:19:31;;;;;;;4.20;1.90;;;;;;;-7.01;53.16;100293.13;108808;1263;58166;-69
2024/01/12 08:21:59;;;;;;;3.20;1.90;;;;;;;-6.94;53.08;100301.45;108773;1264;62588;-70
2024/01/12 08:24:30;;;;;;;3.10;1.70;;;;;;;-6.86;53.06;100304.63;108748;1266;61162;-67
2024/01/12 08:26:57;;;;;;;3.20;1.80;;;;;;;-6.79;52.89;100310.73;108725;1263;57395;-68
2024/01/12 08:29:25;;;;;;;3.90;1.90;;;;;;;-6.74;52.87;100314.27;108778;1263;64162;-68
2024/01/12 08:31:53;;;;;;;4.70;1.90;;;;;;;-6.69;52.65;100314.04;108756;1263;58183;-69
2024/01/12 08:34:22;;;;;;;3.60;1.90;;;;;;;-6.67;52.21;100318.81;108780;1263;62623;-68
2024/01/12 08:36:50;;;;;;;4.20;1.90;;;;;;;-6.66;51.99;100320.34;108748;1263;57324;-69
2024/01/12 08:39:18;;;;;;;3.00;1.70;;;;;;;-6.60;52.19;100321.14;108969;1260;57325;-69
2024/01/12 08:41:46;;;;;;;3.60;1.80;;;;;;;-6.53;52.07;100318.51;109022;1259;64258;-69
2024/01/12 08:44:13;;;;;;;4.00;2.20;;;;;;;-6.48;51.88;100315.19;109008;1260;57381;-68
2024/01/12 08:46:41;;;;;;;3.10;1.80;;;;;;;-6.43;51.66;100319.92;108995;1259;63726;-68
2024/01/12 08:49:08;;;;;;;3.20;1.80;;;;;;;-6.38;51.62;100323.30;109151;1256;57291;-68
2024/01/12 08:51:36;;;;;;;3.30;1.50;;;;;;;-6.30;51.56;100320.98;109152;1256;57251;-69
2024/01/12 08:54:04;;;;;;;4.30;1.70;;;;;;;-6.22;51.39;100324.48;109144;1256;63004;-69
2024/01/12 08:56:31;;;;;;;4.20;1.70;;;;;;;-6.18;50.96;100325.80;109474;1252;69425;-68
2024/01/12 08:58:59;;;;;;;3.90;1.80;;;;;;;-6.16;50.86;100326.47;109600;1253;63723;-69
2024/01/12 09:01:26;;;;;;;4.40;1.70;;;;;;;-6.08;51.06;100326.54;109275;1254;57418;-69
2024/01/12 09:03:54;;;;;;;2.60;1.40;;;;;;;-5.94;51.03;100315.56;109503;1252;59997;-67
2024/01/12 09:06:24;;;;;;;8.40;1.40;;;;;;;-5.83;50.88;100317.96;109486;1253;63008;-67
2024/01/12 09:08:52;;;;;;;2.80;1.40;;;;;;;-5.71;50.59;100318.99;109428;1253;65235;-67
2024/01/12 09:11:20;;;;;;;3.40;1.10;;;;;;;-5.62;50.25;100322.46;109468;1254;74811;-68
2024/01/12 09:13:48;;;;;;;1.70;1.10;;;;;;;-5.52;50.13;100323.69;109425;1254;61850;-70
2024/01/12 09:16:15;;;;;;;3.40;1.30;;;;;;;-5.43;50.03;100328.18;109467;1253;57370;-70
2024/01/12 09:18:43;;;;;;;3.90;1.30;;;;;;;-5.40;49.57;100328.31;109555;1253;66365;-69
2024/01/12 09:21:15;;;;;;;2.50;1.10;;;;;;;-5.41;49.31;100327.46;109313;1252;67861;-70
2024/01/12 09:23:44;;;;;;;3.60;1.50;;;;;;;-5.33;49.57;100328.05;109476;1253;72499;-70
2024/01/12 09:26:12;;;;;;;3.70;1.40;;;;;;;-5.26;49.18;100327.59;109410;1254;57397;-70
2024/01/12 09:28:40;;;;;;;3.00;1.20;;;;;;;-5.28;48.63;100326.92;109606;1253;57381;-70
2024/01/12 09:31:08;;;;;;;2.50;1.20;;;;;;;-5.36;48.26;100328.09;109561;1253;75252;-70
2024/01/12 09:33:36;;;;;;;3.10;1.30;;;;;;;-5.37;48.53;100323.98;109585;1253;58175;-70
2024/01/12 09:36:04;;;;;;;3.20;1.40;;;;;;;-5.31;48.86;100318.22;109520;1253;74096;-70
2024/01/12 09:38:32;;;;;;;2.70;1.60;;;;;;;-5.26;48.75;100319.86;109479;1252;57351;-71
2024/01/12 09:41:01;;;;;;;4.60;1.90;;;;;;;-5.28;48.82;100327.79;109553;1253;57313;-71
2024/01/12 09:43:29;;;;;;;3.70;1.80;;;;;;;-5.31;48.88;100325.60;109341;1254;72763;-70
2024/01/12 09:46:02;;;;;;;4.80;1.80;;;;;;;-5.38;48.99;100325.89;109439;1253;67878;-70
2024/01/12 09:48:30;;;;;;;3.20;2.00;;;;;;;-5.38;49.30;100321.43;109416;1253;73580;-73
2024/01/12 09:50:58;;;;;;;4.20;2.30;;;;;;;-5.29;49.74;100319.73;109552;1252;61625;-72
2024/01/12 09:53:26;;;;;;;3.30;2.10;;;;;;;-5.17;49.97;100318.00;109420;1254;57254;-71
2024/01/12 09:55:54;;;;;;;3.90;2.30;;;;;;;-5.04;50.02;100319.16;109473;1253;66305;-72
2024/01/12 09:58:37;;;;;;;4.10;2.20;;;;;;;-4.93;49.82;100321.36;109450;1254;67324;-70
2024/01/12 10:01:04;;;;;;;3.10;2.10;;;;;;;-4.85;49.58;100321.93;109472;1254;63831;-70
2024/01/12 10:03:32;;;;;;;4.30;2.40;;;;;;;-4.82;49.00;100316.90;109197;1254;60683;-71
2024/01/12 10:06:04;;;;;;;4.60;2.00;;;;;;;-4.85;48.65;100320.02;109459;1253;57483;-71
2024/01/12 10:08:36;;;;;;;5.40;2.20;;;;;;;-4.89;48.50;100320.11;109469;1253;73955;-70
2024/01/12 10:11:04;;;;;;;4.00;2.10;;;;;;;-4.87;48.57;100319.90;109492;1253;57446;-71
2024/01/12 10:13:32;;;;;;;5.00;2.30;;;;;;;-4.90;48.58;100319.09;109379;1254;64928;-70
2024/01/12 10:16:01;;;;;;;3.50;2.10;;;;;;;-4.93;48.59;100317.92;109264;1254;57420;-70
2024/01/12 10:18:29;;;;;;;4.30;2.30;;;;;;;-4.93;48.62;100319.65;109421;1254;57290;-71
2024/01/12 10:21:00;;;;;;;3.10;2.00;;;;;;;-4.96;48.40;100319.00;109306;1254;62848;-70
2024/01/12 10:23:28;;;;;;;4.40;2.10;;;;;;;-4.97;48.51;100314.77;109499;1253;58155;-71
2024/01/12 10:25:58;;;;;;;4.90;2.00;;;;;;;-5.03;48.04;100320.34;109430;1256;64604;-71
2024/01/12 10:28:29;;;;;;;3.50;1.80;;;;;;;-5.07;48.27;100328.30;109152;1254;57424;-71
2024/01/12 10:30:57;;;;;;;3.50;2.20;;;;;;;-4.98;48.77;100324.73;109429;1254;59085;-70
2024/01/12 10:33:24;;;;;;;3.60;2.00;;;;;;;-4.88;48.92;100323.52;109288;1254;74023;-71
2024/01/12 10:36:23;;;;;;;3.50;2.20;;;;;;;-4.76;48.81;100327.95;109482;1253;67942;-69
2024/01/12 10:38:50;;;;;;;3.50;1.80;;;;;;;-4.74;48.41;100327.39;109463;1254;62542;-70
2024/01/12 10:41:19;;;;;;;4.50;2.40;;;;;;;-4.77;48.44;100327.78;109425;1254;57391;-70
2024/01/12 10:43:50;;;;;;;5.70;2.10;;;;;;;-4.82;48.15;100329.77;109354;1253;57488;-71
2024/01/12 10:46:29;;;;;;;3.90;1.90;;;;;;;-4.94;47.69;100330.31;109285;1254;64119;-71
2024/01/12 10:49:16;;;;;;;3.80;2.10;;;;;;;-5.04;47.92;100327.39;109232;1254;59288;-71
2024/01/12 10:51:58;;;;;;;4.10;2.10;;;;;;;-5.04;48.37;100325.85;109225;1254;64516;-70
2024/01/12 10:54:29;;;;;;;4.20;2.60;;;;;;;-5.00;48.51;100326.11;109303;1253;57352;-71
2024/01/12 10:56:56;;;;;;;5.00;2.50;;;;;;;-4.95;48.44;100326.55;109262;1254;57419;-71
2024/01/12 10:59:25;;;;;;;5.30;2.20;;;;;;;-4.91;48.40;100326.84;109158;1255;66282;-70
2024/01/12 11:01:52;;;;;;;5.30;3.20;;;;;;;-4.87;48.28;100329.85;109103;1255;58201;-70
2024/01/12 11:04:21;;;;;;;4.90;2.30;;;;;;;-4.90;47.93;100331.29;109162;1259;66734;-70
2024/01/12 11:06:51;;;;;;;4.20;2.10;;;;;;;-4.99;47.78;100331.27;109204;1256;57482;-70
2024/01/12 11:09:22;;;;;;;3.50;1.90;;;;;;;-5.04;48.14;100330.12;109275;1255;57270;-70
2024/01/12 11:12:04;;;;;;;4.20;1.90;;;;;;;-5.04;47.90;100331.01;109170;1256;64123;-70
2024/01/12 11:14:32;;;;;;;3.00;1.80;;;;;;;-5.13;47.26;100335.79;109148;1257;67252;-71
2024/01/12 11:16:59;;;;;;;3.30;1.80;;;;;;;-5.15;48.02;100336.00;109163;1255;71364;-71
2024/01/12 11:19:27;;;;;;;4.50;2.00;;;;;;;-5.04;48.79;100332.38;109067;1256;58172;-70
2024/01/12 11:22:09;;;;;;;5.40;2.00;;;;;;;-4.79;49.19;100329.72;109177;1256;59900;-70
2024/01/12 11:24:37;;;;;;;4.30;2.10;;;;;;;-4.59;48.97;100322.32;109195;1255;67226;-71
2024/01/12 11:27:05;;;;;;;4.60;2.10;;;;;;;-4.40;49.07;100321.79;109146;1257;68909;-70
2024/01/12 11:29:37;;;;;;;3.90;1.80;;;;;;;-4.20;48.19;100327.07;109229;1255;72713;-70
2024/01/12 11:32:05;;;;;;;3.70;2.10;;;;;;;-4.10;48.05;100325.16;109211;1255;62657;-70
2024/01/12 11:34:37;;;;;;;2.40;1.60;;;;;;;-3.97;47.96;100328.84;109180;1256;60330;-70
2024/01/12 11:37:08;;;;;;;4.30;1.70;;;;;;;-3.93;47.33;100336.66;109175;1256;76230;-71
2024/01/12 11:39:41;;;;;;;2.90;1.80;;;;;;;-3.94;47.22;100335.65;109252;1256;59467;-70
2024/01/12 11:42:09;;;;;;;4.30;2.20;;;;;;;-3.89;47.60;100335.73;109166;1255;72708;-69
2024/01/12 11:44:36;;;;;;;3.60;1.90;;;;;;;-3.79;47.58;100332.91;109111;1255;60675;-70
2024/01/12 11:47:05;;;;;;;3.70;1.80;;;;;;;-3.75;46.94;100336.47;109236;1256;61040;-70
2024/01/12 11:49:35;;;;;;;2.40;1.50;;;;;;;-3.79;46.57;100338.61;109251;1255;66944;-69
2024/01/12 11:52:06;;;;;;;3.50;1.90;;;;;;;-3.88;46.64;100339.48;109164;1256;66733;-69
2024/01/12 11:54:33;;;;;;;3.30;1.70;;;;;;;-3.86;47.03;100340.30;109091;1255;71747;-71
2024/01/12 11:57:04;;;;;;;3.50;1.90;;;;;;;-3.72;47.37;100337.92;109224;1256;63839;-70
2024/01/12 11:59:35;;;;;;;4.10;1.90;;;;;;;-3.52;47.67;100338.16;109216;1256;60157;-71